Time;durP1;ratioP1;P1;durP2;ratioP2;P2;SDS_P1;SDS_P2;PMS_P1;PMS_P2;Temp;Humidity;BMP_temperature;BMP_pressure;BME280_temperature;BME280_humidity;BME280_pressure;Samples;Min_cycle;Max_cycle;Signal;HPM_P1;HPM_P2
2022/07/28 00:02:23;;;;;;;2.67;2.00;;;;;;;;;;5053506;28;20593;-54
2022/07/28 00:04:48;;;;;;;5.75;2.70;;;;;;;;;;5052133;28;20422;-55
2022/07/28 00:07:14;;;;;;;5.47;2.50;;;;;;;;;;5052375;28;20405;-55
2022/07/28 00:09:40;;;;;;;34.17;30.63;;;;;;;;;;5052194;28;20448;-54
2022/07/28 00:12:08;;;;;;;10.55;5.78;;;;;;;;;;5052137;28;20433;-55
2022/07/28 00:14:34;;;;;;;6.50;2.50;;;;;;;;;;5052151;28;20401;-55
2022/07/28 00:17:00;;;;;;;7.82;2.20;;;;;;;;;;5051962;28;20408;-54
2022/07/28 00:19:26;;;;;;;5.13;2.28;;;;;;;;;;5052032;28;20401;-54
2022/07/28 00:21:52;;;;;;;4.88;2.33;;;;;;;;;;5051901;28;20909;-54
2022/07/28 00:24:18;;;;;;;5.55;2.90;;;;;;;;;;5051759;28;20418;-54
2022/07/28 00:26:44;;;;;;;7.18;3.72;;;;;;;;;;5051787;28;20488;-54
2022/07/28 00:29:11;;;;;;;5.20;3.42;;;;;;;;;;5051869;28;20408;-54
2022/07/28 00:31:37;;;;;;;5.22;3.40;;;;;;;;;;5051917;28;20405;-54
2022/07/28 00:34:03;;;;;;;6.22;3.20;;;;;;;;;;5051800;28;20864;-54
2022/07/28 00:36:29;;;;;;;7.47;2.97;;;;;;;;;;5051899;28;20408;-54
2022/07/28 00:38:55;;;;;;;4.45;2.78;;;;;;;;;;5051684;28;20401;-54
2022/07/28 00:41:22;;;;;;;6.25;2.83;;;;;;;;;;5051682;28;20408;-53
2022/07/28 00:43:49;;;;;;;7.45;2.83;;;;;;;;;;5051305;28;20509;-54
2022/07/28 00:46:19;;;;;;;5.90;2.55;;;;;;;;;;5051354;28;21086;-54
2022/07/28 00:48:45;;;;;;;6.60;2.53;;;;;;;;;;5051292;28;20415;-54
2022/07/28 00:51:12;;;;;;;11.85;8.68;;;;;;;;;;5051359;28;20416;-54
2022/07/28 00:53:39;;;;;;;7.35;4.97;;;;;;;;;;5051450;28;20440;-54
2022/07/28 00:56:05;;;;;;;6.72;2.25;;;;;;;;;;5051211;28;20405;-54
2022/07/28 00:58:31;;;;;;;6.07;2.25;;;;;;;;;;5051314;28;20411;-54
2022/07/28 01:00:58;;;;;;;3.70;2.00;;;;;;;;;;5051033;28;20401;-54
2022/07/28 01:03:25;;;;;;;5.97;2.30;;;;;;;;;;5050447;28;20406;-53
2022/07/28 01:05:55;;;;;;;4.75;2.30;;;;;;;;;;5050914;28;20771;-54
2022/07/28 01:08:27;;;;;;;5.93;2.00;;;;;;;;;;5051244;28;20487;-54
2022/07/28 01:10:55;;;;;;;5.60;2.13;;;;;;;;;;5050816;28;20405;-54
2022/07/28 01:13:25;;;;;;;3.83;2.00;;;;;;;;;;5052198;28;20435;-54
2022/07/28 01:15:54;;;;;;;5.95;2.50;;;;;;;;;;5050913;28;20412;-54
2022/07/28 01:18:22;;;;;;;3.03;1.80;;;;;;;;;;5050855;28;20776;-54
2022/07/28 01:20:52;;;;;;;3.58;2.10;;;;;;;;;;5050636;28;20405;-54
2022/07/28 01:23:38;;;;;;;4.38;2.03;;;;;;;;;;5050790;28;20409;-54
2022/07/28 01:26:12;;;;;;;2.88;1.90;;;;;;;;;;5050446;28;20390;-54
2022/07/28 01:28:45;;;;;;;4.10;2.05;;;;;;;;;;5050642;28;20949;-54
2022/07/28 01:31:15;;;;;;;2.50;1.87;;;;;;;;;;5051790;28;20730;-54
2022/07/28 01:33:43;;;;;;;4.60;2.20;;;;;;;;;;5050753;28;20412;-53
2022/07/28 01:36:10;;;;;;;6.67;2.50;;;;;;;;;;5051798;28;20238;-53
2022/07/28 01:38:38;;;;;;;2.90;2.33;;;;;;;;;;5051509;28;20250;-54
2022/07/28 01:41:04;;;;;;;5.43;2.00;;;;;;;;;;5051426;28;20199;-53
2022/07/28 01:43:31;;;;;;;5.17;2.20;;;;;;;;;;5051625;28;20317;-54
2022/07/28 01:45:58;;;;;;;3.73;2.10;;;;;;;;;;5051146;28;20227;-53
2022/07/28 01:48:28;;;;;;;3.77;2.30;;;;;;;;;;5051620;28;20275;-53
2022/07/28 01:50:55;;;;;;;5.67;2.57;;;;;;;;;;5051487;28;20211;-53
2022/07/28 01:53:22;;;;;;;4.27;2.20;;;;;;;;;;5051553;28;20200;-56
2022/07/28 01:55:50;;;;;;;4.17;2.10;;;;;;;;;;5051318;28;20200;-53
2022/07/28 01:58:18;;;;;;;4.70;2.00;;;;;;;;;;5051548;28;20203;-53
2022/07/28 02:00:46;;;;;;;3.77;2.10;;;;;;;;;;5051796;28;20214;-53
2022/07/28 02:03:13;;;;;;;4.80;2.00;;;;;;;;;;5051502;28;20673;-54
2022/07/28 02:05:41;;;;;;;4.40;2.33;;;;;;;;;;5050167;28;20942;-53
2022/07/28 02:08:08;;;;;;;5.17;2.50;;;;;;;;;;5050134;28;20488;-53
2022/07/28 02:10:34;;;;;;;4.55;2.30;;;;;;;;;;5050088;28;20417;-53
2022/07/28 02:13:01;;;;;;;3.50;2.20;;;;;;;;;;5049721;28;20413;-54
2022/07/28 02:15:27;;;;;;;4.28;2.30;;;;;;;;;;5053019;28;20466;-53
2022/07/28 02:17:54;;;;;;;4.07;2.10;;;;;;;;;;5054396;28;20500;-53
2022/07/28 02:20:20;;;;;;;9.00;2.30;;;;;;;;;;5054606;28;20401;-53
2022/07/28 02:22:48;;;;;;;7.03;2.30;;;;;;;;;;5054457;28;20488;-53
2022/07/28 02:25:14;;;;;;;4.73;2.53;;;;;;;;;;5054324;28;20440;-53
2022/07/28 02:27:44;;;;;;;3.50;2.13;;;;;;;;;;5054341;28;20501;-53
2022/07/28 02:30:11;;;;;;;3.20;2.10;;;;;;;;;;5054056;28;20408;-53
2022/07/28 02:32:39;;;;;;;3.87;2.17;;;;;;;;;;5055438;28;20566;-53
2022/07/28 02:35:07;;;;;;;5.75;2.33;;;;;;;;;;5054099;28;20427;-53
2022/07/28 02:37:34;;;;;;;2.70;2.03;;;;;;;;;;5054125;28;20428;-53
2022/07/28 02:40:02;;;;;;;3.83;2.15;;;;;;;;;;5054073;28;20958;-53
2022/07/28 02:42:31;;;;;;;4.53;1.98;;;;;;;;;;5053845;28;20405;-54
2022/07/28 02:44:59;;;;;;;3.33;2.15;;;;;;;;;;5053260;28;20409;-53
2022/07/28 02:47:25;;;;;;;3.20;2.10;;;;;;;;;;5053871;28;20917;-54
2022/07/28 02:49:51;;;;;;;5.23;2.60;;;;;;;;;;5053572;28;20503;-53
2022/07/28 02:55:49;;;;;;;4.72;2.28;;;;;;;;;;5054274;28;20384;-54
2022/07/28 02:58:18;;;;;;;4.13;2.05;;;;;;;;;;5053353;28;20381;-53
2022/07/28 03:00:44;;;;;;;4.38;2.20;;;;;;;;;;5053539;28;20417;-54
2022/07/28 03:03:10;;;;;;;4.50;2.30;;;;;;;;;;5053532;28;20405;-53
2022/07/28 03:05:37;;;;;;;4.45;2.33;;;;;;;;;;5053277;28;20422;-53
2022/07/28 03:08:03;;;;;;;6.85;2.50;;;;;;;;;;5053416;28;20451;-53
2022/07/28 03:10:29;;;;;;;4.78;2.47;;;;;;;;;;5053410;28;20467;-54
2022/07/28 03:12:59;;;;;;;2.67;2.00;;;;;;;;;;5053165;28;20413;-53
2022/07/28 03:15:26;;;;;;;4.63;2.30;;;;;;;;;;5053223;28;20894;-53
2022/07/28 03:17:52;;;;;;;3.55;2.30;;;;;;;;;;5053147;28;20888;-53
2022/07/28 03:20:18;;;;;;;3.72;2.20;;;;;;;;;;5053254;28;20408;-54
2022/07/28 03:22:44;;;;;;;3.30;2.30;;;;;;;;;;5053193;28;20759;-53
2022/07/28 03:25:12;;;;;;;4.13;2.25;;;;;;;;;;5052752;28;20406;-53
2022/07/28 03:27:41;;;;;;;5.40;2.20;;;;;;;;;;5051930;28;20419;-53
2022/07/28 03:30:08;;;;;;;4.28;2.40;;;;;;;;;;5052562;28;20566;-54
2022/07/28 03:32:36;;;;;;;3.75;2.40;;;;;;;;;;5052981;28;20420;-53
2022/07/28 03:35:02;;;;;;;2.88;2.17;;;;;;;;;;5052692;28;20409;-54
2022/07/28 03:37:32;;;;;;;5.03;2.23;;;;;;;;;;5052784;28;20807;-53
2022/07/28 03:39:58;;;;;;;3.58;2.20;;;;;;;;;;5052372;28;20398;-53
2022/07/28 03:42:26;;;;;;;4.15;2.38;;;;;;;;;;5052334;28;20767;-53
2022/07/28 03:44:53;;;;;;;3.60;2.20;;;;;;;;;;5052368;28;20980;-53
2022/07/28 03:47:20;;;;;;;3.05;2.20;;;;;;;;;;5052336;28;20884;-53
2022/07/28 03:49:48;;;;;;;4.72;2.13;;;;;;;;;;5052645;28;20441;-54
2022/07/28 03:52:14;;;;;;;4.20;2.47;;;;;;;;;;5052291;28;20433;-54
2022/07/28 03:54:40;;;;;;;5.03;2.60;;;;;;;;;;5052470;28;20447;-54
2022/07/28 03:57:06;;;;;;;3.67;2.65;;;;;;;;;;5052373;28;20931;-54
2022/07/28 03:59:32;;;;;;;4.57;2.50;;;;;;;;;;5052530;28;20425;-53
2022/07/28 04:01:58;;;;;;;4.18;2.50;;;;;;;;;;5052323;28;20456;-53
2022/07/28 04:04:24;;;;;;;5.47;2.80;;;;;;;;;;5052201;28;20449;-53
2022/07/28 04:06:51;;;;;;;4.57;2.50;;;;;;;;;;5051840;28;20954;-53
2022/07/28 04:09:17;;;;;;;5.43;2.67;;;;;;;;;;5052455;28;20405;-53
2022/07/28 04:11:43;;;;;;;5.45;2.50;;;;;;;;;;5052145;28;20427;-53
2022/07/28 04:14:09;;;;;;;3.17;2.45;;;;;;;;;;5052073;28;20760;-53
2022/07/28 04:16:35;;;;;;;4.53;3.00;;;;;;;;;;5052089;28;20404;-53
2022/07/28 04:19:01;;;;;;;5.78;2.80;;;;;;;;;;5052150;28;20413;-53
2022/07/28 04:21:27;;;;;;;4.30;2.75;;;;;;;;;;5052035;28;20484;-54
2022/07/28 04:23:55;;;;;;;5.13;3.10;;;;;;;;;;5051944;28;20393;-53
2022/07/28 04:26:21;;;;;;;5.70;3.25;;;;;;;;;;5051988;28;20416;-53
2022/07/28 04:28:47;;;;;;;5.30;3.00;;;;;;;;;;5052034;28;20441;-54
2022/07/28 04:31:13;;;;;;;6.22;3.40;;;;;;;;;;5051861;28;20431;-54
2022/07/28 04:33:39;;;;;;;6.22;3.05;;;;;;;;;;5051926;28;20764;-54
2022/07/28 04:36:05;;;;;;;4.87;3.13;;;;;;;;;;5052203;28;20455;-53
2022/07/28 04:38:31;;;;;;;5.07;3.13;;;;;;;;;;5051813;28;20409;-53
2022/07/28 04:40:58;;;;;;;6.22;3.30;;;;;;;;;;5051620;28;20807;-53
2022/07/28 04:43:25;;;;;;;5.57;3.08;;;;;;;;;;5051202;28;20899;-53
2022/07/28 04:45:52;;;;;;;4.25;3.00;;;;;;;;;;5051101;28;20933;-54
2022/07/28 04:48:18;;;;;;;6.13;3.22;;;;;;;;;;5051527;28;20397;-53
2022/07/28 04:50:44;;;;;;;5.82;3.40;;;;;;;;;;5051533;28;20481;-53
2022/07/28 04:53:10;;;;;;;6.57;3.47;;;;;;;;;;5051416;28;20385;-53
2022/07/28 04:55:38;;;;;;;5.60;3.30;;;;;;;;;;5051332;28;20405;-53
2022/07/28 04:58:05;;;;;;;5.07;3.20;;;;;;;;;;5051236;28;20487;-53
2022/07/28 05:00:31;;;;;;;4.88;3.40;;;;;;;;;;5051381;28;20409;-54
2022/07/28 05:02:57;;;;;;;6.13;3.47;;;;;;;;;;5051277;28;20397;-54
2022/07/28 05:05:23;;;;;;;7.28;3.47;;;;;;;;;;5051101;28;20496;-54
2022/07/28 05:07:49;;;;;;;5.40;3.20;;;;;;;;;;5051093;28;20477;-54
2022/07/28 05:10:15;;;;;;;5.90;3.30;;;;;;;;;;5051329;28;20470;-54
2022/07/28 05:12:42;;;;;;;5.65;3.10;;;;;;;;;;5051140;28;20899;-53
2022/07/28 05:15:09;;;;;;;4.68;3.13;;;;;;;;;;5050913;28;20416;-54
2022/07/28 05:17:35;;;;;;;5.35;3.20;;;;;;;;;;5051117;28;20876;-53
2022/07/28 05:20:01;;;;;;;4.13;2.90;;;;;;;;;;5051059;28;20409;-54
2022/07/28 05:22:29;;;;;;;5.00;3.33;;;;;;;;;;5051095;28;20394;-54
2022/07/28 05:24:55;;;;;;;6.40;3.90;;;;;;;;;;5050778;28;20417;-53
2022/07/28 05:27:21;;;;;;;4.20;3.00;;;;;;;;;;5050893;28;20405;-53
2022/07/28 05:29:47;;;;;;;4.97;3.23;;;;;;;;;;5050940;28;20404;-54
2022/07/28 05:32:15;;;;;;;5.38;3.15;;;;;;;;;;5050812;28;20405;-53
2022/07/28 05:34:40;;;;;;;4.63;3.25;;;;;;;;;;5050870;28;20455;-54
2022/07/28 05:37:07;;;;;;;4.78;3.22;;;;;;;;;;5050693;28;20883;-54
2022/07/28 05:39:34;;;;;;;5.25;3.00;;;;;;;;;;5050696;28;20420;-54
2022/07/28 05:42:00;;;;;;;5.80;3.28;;;;;;;;;;5050799;28;20401;-54
2022/07/28 05:44:26;;;;;;;5.93;3.27;;;;;;;;;;5050368;28;20934;-54
2022/07/28 05:46:52;;;;;;;6.68;3.20;;;;;;;;;;5050604;28;20484;-54
2022/07/28 05:49:20;;;;;;;4.80;3.20;;;;;;;;;;5049967;28;20458;-54
2022/07/28 05:51:46;;;;;;;6.97;3.10;;;;;;;;;;5050347;28;20416;-54
2022/07/28 05:54:12;;;;;;;5.45;3.40;;;;;;;;;;5048336;28;20436;-54
2022/07/28 05:56:38;;;;;;;6.63;2.90;;;;;;;;;;5049632;28;20587;-53
2022/07/28 05:59:08;;;;;;;5.87;2.83;;;;;;;;;;5050608;28;20684;-54
2022/07/28 06:01:35;;;;;;;4.03;3.00;;;;;;;;;;5051120;28;20208;-53
2022/07/28 06:04:01;;;;;;;5.03;2.83;;;;;;;;;;5051279;28;20204;-53
2022/07/28 06:06:28;;;;;;;6.97;3.20;;;;;;;;;;5051402;28;20208;-54
2022/07/28 06:08:54;;;;;;;5.27;2.80;;;;;;;;;;5051183;28;20200;-54
2022/07/28 06:11:20;;;;;;;4.37;2.40;;;;;;;;;;5051486;28;20210;-53
2022/07/28 06:13:47;;;;;;;3.93;2.73;;;;;;;;;;5051613;28;20198;-53
2022/07/28 06:16:13;;;;;;;4.03;2.90;;;;;;;;;;5051203;28;20543;-54
2022/07/28 06:18:39;;;;;;;4.70;3.00;;;;;;;;;;5051449;28;20618;-53
2022/07/28 06:21:05;;;;;;;6.23;3.30;;;;;;;;;;5051097;28;20204;-53
2022/07/28 06:23:33;;;;;;;7.27;3.50;;;;;;;;;;5051856;28;20200;-54
2022/07/28 06:25:59;;;;;;;6.80;3.03;;;;;;;;;;5051365;28;20232;-54
2022/07/28 06:28:25;;;;;;;6.03;2.70;;;;;;;;;;5051709;28;20200;-54
2022/07/28 06:30:51;;;;;;;6.43;2.80;;;;;;;;;;5051364;28;20203;-54
2022/07/28 06:33:17;;;;;;;3.97;2.17;;;;;;;;;;5051704;28;20212;-54
2022/07/28 06:35:43;;;;;;;3.40;2.30;;;;;;;;;;5051493;28;20574;-54
2022/07/28 06:38:09;;;;;;;4.57;2.40;;;;;;;;;;5051391;28;20673;-54
2022/07/28 06:40:37;;;;;;;6.93;2.90;;;;;;;;;;5051316;28;20236;-54
2022/07/28 06:43:03;;;;;;;7.47;2.57;;;;;;;;;;5051165;28;20313;-54
2022/07/28 06:45:29;;;;;;;7.53;2.53;;;;;;;;;;5051290;28;20642;-54
2022/07/28 06:47:55;;;;;;;11.60;2.90;;;;;;;;;;5051257;28;20204;-55
2022/07/28 06:50:21;;;;;;;5.70;2.27;;;;;;;;;;5051318;28;20196;-54
2022/07/28 06:52:47;;;;;;;4.97;1.90;;;;;;;;;;5050542;28;20210;-55
2022/07/28 06:55:14;;;;;;;8.73;2.00;;;;;;;;;;5051287;28;20196;-55
2022/07/28 06:57:42;;;;;;;8.23;2.23;;;;;;;;;;5051457;28;20204;-55
2022/07/28 07:00:11;;;;;;;5.87;2.03;;;;;;;;;;5051286;28;20212;-55
2022/07/28 07:02:38;;;;;;;5.35;1.67;;;;;;;;;;5052551;28;20824;-54
2022/07/28 07:05:05;;;;;;;4.23;1.80;;;;;;;;;;5054637;28;20623;-55
2022/07/28 07:07:31;;;;;;;3.57;1.63;;;;;;;;;;5054981;28;20193;-55
2022/07/28 07:09:57;;;;;;;4.60;1.60;;;;;;;;;;5054623;28;20201;-55
2022/07/28 07:12:23;;;;;;;3.33;1.60;;;;;;;;;;5054510;28;20277;-54
2022/07/28 07:14:50;;;;;;;4.80;1.40;;;;;;;;;;5054659;28;20194;-55
2022/07/28 07:17:16;;;;;;;6.90;2.40;;;;;;;;;;5054786;28;20210;-54
2022/07/28 07:19:42;;;;;;;2.70;1.40;;;;;;;;;;5054495;28;20192;-55
2022/07/28 07:22:08;;;;;;;4.60;1.60;;;;;;;;;;5053136;28;20432;-55
2022/07/28 07:24:34;;;;;;;3.55;1.60;;;;;;;;;;5052690;28;20473;-55
2022/07/28 07:27:00;;;;;;;4.67;1.90;;;;;;;;;;5054245;28;20245;-56
2022/07/28 07:29:26;;;;;;;5.30;1.47;;;;;;;;;;5053858;28;20200;-56
2022/07/28 07:31:53;;;;;;;7.77;1.40;;;;;;;;;;5053994;28;20618;-55
2022/07/28 07:34:19;;;;;;;2.77;1.17;;;;;;;;;;5053783;28;20272;-55
2022/07/28 07:36:45;;;;;;;4.10;1.57;;;;;;;;;;5053704;28;20251;-55
2022/07/28 07:39:11;;;;;;;3.47;1.40;;;;;;;;;;5053699;28;20563;-55
2022/07/28 07:41:37;;;;;;;4.03;1.33;;;;;;;;;;5053827;28;20199;-58
2022/07/28 07:44:03;;;;;;;6.67;1.30;;;;;;;;;;5052931;28;20335;-55
2022/07/28 07:46:29;;;;;;;5.63;1.80;;;;;;;;;;5053971;28;20319;-56
2022/07/28 07:48:57;;;;;;;4.57;1.40;;;;;;;;;;5053406;28;20282;-56
2022/07/28 07:51:22;;;;;;;5.33;1.37;;;;;;;;;;5053075;28;20208;-55
2022/07/28 07:53:48;;;;;;;2.07;1.23;;;;;;;;;;5053637;28;20215;-55
2022/07/28 07:56:17;;;;;;;3.03;1.30;;;;;;;;;;5053851;28;20207;-56
2022/07/28 07:58:43;;;;;;;2.03;1.40;;;;;;;;;;5053603;28;20219;-56
2022/07/28 08:01:11;;;;;;;2.07;1.20;;;;;;;;;;5053487;28;20624;-55
2022/07/28 08:03:37;;;;;;;5.57;1.60;;;;;;;;;;5053579;28;20200;-55
2022/07/28 08:06:04;;;;;;;5.10;1.40;;;;;;;;;;5053177;28;20232;-55
2022/07/28 08:08:30;;;;;;;4.70;1.00;;;;;;;;;;5053570;28;20207;-55
2022/07/28 08:10:56;;;;;;;2.53;1.17;;;;;;;;;;5053261;28;20208;-55
2022/07/28 08:13:22;;;;;;;4.13;1.37;;;;;;;;;;5052774;28;20823;-56
2022/07/28 08:15:49;;;;;;;2.73;1.20;;;;;;;;;;5051779;28;20292;-55
2022/07/28 08:18:15;;;;;;;4.93;1.40;;;;;;;;;;5054165;28;20196;-57
2022/07/28 08:20:41;;;;;;;27.90;24.90;;;;;;;;;;5053991;28;20222;-54
2022/07/28 08:23:08;;;;;;;6.43;3.57;;;;;;;;;;5053498;28;20197;-58
2022/07/28 08:25:34;;;;;;;5.30;1.57;;;;;;;;;;5053258;28;20239;-60
2022/07/28 08:28:00;;;;;;;2.40;1.20;;;;;;;;;;5052662;28;20246;-58
2022/07/28 08:30:26;;;;;;;1.97;1.20;;;;;;;;;;5053040;28;20592;-57
2022/07/28 08:32:52;;;;;;;4.83;1.30;;;;;;;;;;5053004;28;20223;-58
2022/07/28 08:35:18;;;;;;;3.20;1.27;;;;;;;;;;5052865;28;20654;-58
2022/07/28 08:37:44;;;;;;;2.20;1.07;;;;;;;;;;5053164;28;20192;-58
2022/07/28 08:40:14;;;;;;;2.60;1.30;;;;;;;;;;5050012;28;20200;-58
2022/07/28 08:42:43;;;;;;;3.97;1.30;;;;;;;;;;5050263;28;20200;-58
2022/07/28 08:45:10;;;;;;;2.37;1.00;;;;;;;;;;5052220;28;20585;-58
2022/07/28 08:47:37;;;;;;;3.83;1.27;;;;;;;;;;5052549;28;20274;-58
2022/07/28 08:50:04;;;;;;;2.77;1.10;;;;;;;;;;5052526;28;20727;-58
2022/07/28 08:52:30;;;;;;;4.33;1.37;;;;;;;;;;5052646;28;20204;-58
2022/07/28 08:54:57;;;;;;;5.43;1.77;;;;;;;;;;5052323;28;20192;-58
2022/07/28 08:57:27;;;;;;;3.27;1.20;;;;;;;;;;5052499;28;20207;-58
2022/07/28 08:59:53;;;;;;;2.80;1.03;;;;;;;;;;5051645;28;20209;-58
2022/07/28 09:02:19;;;;;;;2.70;1.10;;;;;;;;;;5052324;28;20229;-58
2022/07/28 09:04:45;;;;;;;3.00;1.10;;;;;;;;;;5052285;28;20278;-58
2022/07/28 09:07:12;;;;;;;2.90;1.27;;;;;;;;;;5052102;28;20202;-58
2022/07/28 09:09:38;;;;;;;2.30;1.03;;;;;;;;;;5051866;28;20221;-58
2022/07/28 09:12:05;;;;;;;5.13;1.20;;;;;;;;;;5052076;28;20206;-58
2022/07/28 09:14:33;;;;;;;2.77;1.30;;;;;;;;;;5052343;28;20201;-58
2022/07/28 09:16:59;;;;;;;3.57;1.40;;;;;;;;;;5052076;28;20206;-58
2022/07/28 09:19:25;;;;;;;6.17;1.40;;;;;;;;;;5052138;28;20209;-58
2022/07/28 09:21:51;;;;;;;1.27;0.80;;;;;;;;;;5052316;28;20203;-58
2022/07/28 09:24:31;;;;;;;2.17;0.90;;;;;;;;;;5051447;28;20724;-58
2022/07/28 09:26:59;;;;;;;3.03;1.20;;;;;;;;;;5052409;28;20209;-58
2022/07/28 09:29:25;;;;;;;3.07;1.50;;;;;;;;;;5052415;28;20207;-58
2022/07/28 09:31:52;;;;;;;2.77;1.40;;;;;;;;;;5052179;28;20202;-58
2022/07/28 09:34:18;;;;;;;2.43;1.13;;;;;;;;;;5052039;28;20206;-58
2022/07/28 09:36:44;;;;;;;3.17;1.10;;;;;;;;;;5051997;28;20691;-58
2022/07/28 09:39:10;;;;;;;4.07;1.70;;;;;;;;;;5051878;28;20215;-58
2022/07/28 09:41:47;;;;;;;2.37;1.30;;;;;;;;;;5051682;28;20689;-58
2022/07/28 09:44:17;;;;;;;4.53;1.13;;;;;;;;;;5051208;28;20355;-58
2022/07/28 09:46:43;;;;;;;2.40;1.13;;;;;;;;;;5051714;28;20252;-58
2022/07/28 09:49:28;;;;;;;2.77;1.20;;;;;;;;;;5051576;28;20226;-59
2022/07/28 09:52:00;;;;;;;3.57;1.13;;;;;;;;;;5047935;28;20211;-58
2022/07/28 09:54:26;;;;;;;2.87;1.27;;;;;;;;;;5051157;28;20299;-58
2022/07/28 09:56:53;;;;;;;4.37;1.10;;;;;;;;;;5051521;28;20218;-58
2022/07/28 09:59:20;;;;;;;3.60;1.17;;;;;;;;;;5051511;28;20752;-58
2022/07/28 10:01:51;;;;;;;3.33;1.10;;;;;;;;;;5051629;28;20228;-58
2022/07/28 10:04:27;;;;;;;3.60;1.50;;;;;;;;;;5048073;28;20258;-58
2022/07/28 10:06:59;;;;;;;4.17;1.30;;;;;;;;;;5051032;28;20653;-58
2022/07/28 10:09:26;;;;;;;2.17;1.10;;;;;;;;;;5051029;28;20199;-58
2022/07/28 10:11:52;;;;;;;6.07;1.57;;;;;;;;;;5050631;28;20971;-58
2022/07/28 10:14:22;;;;;;;4.07;1.60;;;;;;;;;;5051157;28;20746;-58
2022/07/28 10:16:52;;;;;;;3.67;1.30;;;;;;;;;;5051027;28;20204;-57
2022/07/28 10:19:20;;;;;;;4.50;1.20;;;;;;;;;;5048880;28;20287;-57
2022/07/28 10:21:47;;;;;;;3.43;0.90;;;;;;;;;;5049714;28;20611;-57
2022/07/28 10:24:14;;;;;;;2.97;1.30;;;;;;;;;;5050714;28;20239;-58
2022/07/28 10:26:42;;;;;;;3.97;1.20;;;;;;;;;;5050849;28;20224;-57
2022/07/28 10:29:12;;;;;;;1.90;1.07;;;;;;;;;;5050664;28;20200;-57
2022/07/28 10:31:43;;;;;;;5.07;1.10;;;;;;;;;;5050773;28;20478;-57
2022/07/28 10:34:14;;;;;;;1.77;1.30;;;;;;;;;;5050698;28;20204;-57
2022/07/28 10:36:41;;;;;;;2.80;0.90;;;;;;;;;;5053329;28;20202;-57
2022/07/28 10:39:12;;;;;;;1.73;1.17;;;;;;;;;;5054394;28;20210;-57
2022/07/28 10:41:41;;;;;;;2.37;1.20;;;;;;;;;;5054557;28;20197;-58
2022/07/28 10:44:09;;;;;;;2.13;1.00;;;;;;;;;;5054215;28;20710;-57
2022/07/28 10:46:36;;;;;;;3.00;1.67;;;;;;;;;;5054314;28;20259;-58
2022/07/28 10:49:03;;;;;;;1.83;1.10;;;;;;;;;;5054504;28;20295;-58
2022/07/28 10:51:29;;;;;;;2.60;1.20;;;;;;;;;;5054556;28;20762;-57
2022/07/28 10:54:01;;;;;;;5.43;1.23;;;;;;;;;;5054340;28;20204;-57
2022/07/28 10:56:29;;;;;;;3.20;1.47;;;;;;;;;;5054528;28;20193;-58
2022/07/28 10:58:59;;;;;;;2.57;1.27;;;;;;;;;;5054336;28;20565;-57
2022/07/28 11:01:35;;;;;;;3.07;1.27;;;;;;;;;;5054431;28;20277;-58
2022/07/28 11:04:01;;;;;;;3.07;1.33;;;;;;;;;;5054297;28;20774;-58
2022/07/28 11:06:28;;;;;;;3.05;1.20;;;;;;;;;;5053235;28;20748;-58
2022/07/28 11:08:54;;;;;;;2.63;1.27;;;;;;;;;;5052962;28;20451;-57
2022/07/28 11:11:38;;;;;;;3.80;1.40;;;;;;;;;;5054317;28;20294;-58
2022/07/28 11:14:19;;;;;;;3.77;1.30;;;;;;;;;;5040720;28;20567;-58
2022/07/28 11:16:46;;;;;;;3.33;1.17;;;;;;;;;;5053456;28;20673;-57
2022/07/28 11:19:14;;;;;;;2.70;1.20;;;;;;;;;;5053926;28;20205;-58
2022/07/28 11:22:00;;;;;;;4.77;1.40;;;;;;;;;;5054066;28;20203;-58
2022/07/28 11:24:26;;;;;;;2.80;1.13;;;;;;;;;;5053757;28;20630;-58
2022/07/28 11:26:53;;;;;;;3.50;1.20;;;;;;;;;;5053818;28;20230;-58
2022/07/28 11:29:19;;;;;;;2.80;1.30;;;;;;;;;;5052652;28;20701;-58
2022/07/28 11:31:56;;;;;;;2.27;1.10;;;;;;;;;;5054008;28;20199;-58
2022/07/28 11:34:23;;;;;;;2.50;1.20;;;;;;;;;;5053722;28;20214;-58
2022/07/28 11:37:01;;;;;;;2.90;1.23;;;;;;;;;;5053678;28;20199;-58
2022/07/28 11:39:28;;;;;;;8.93;1.30;;;;;;;;;;5053811;28;20230;-58
2022/07/28 11:41:54;;;;;;;2.80;1.20;;;;;;;;;;5053625;28;20399;-58
2022/07/28 11:44:23;;;;;;;4.77;1.30;;;;;;;;;;5053160;28;20729;-58
2022/07/28 11:46:49;;;;;;;2.97;1.30;;;;;;;;;;5052920;28;20235;-58
2022/07/28 11:49:23;;;;;;;3.40;1.20;;;;;;;;;;5053277;28;20205;-58
2022/07/28 11:52:09;;;;;;;3.77;1.20;;;;;;;;;;5053495;28;20305;-59
2022/07/28 11:54:35;;;;;;;3.65;1.55;;;;;;;;;;5052215;28;20408;-58
2022/07/28 11:57:03;;;;;;;3.50;1.30;;;;;;;;;;5053453;28;20667;-58
2022/07/28 11:59:39;;;;;;;4.80;1.57;;;;;;;;;;5053590;28;20199;-58
2022/07/28 12:02:05;;;;;;;2.87;1.30;;;;;;;;;;5053295;28;20202;-58
2022/07/28 12:04:32;;;;;;;2.37;1.13;;;;;;;;;;5053458;28;20200;-58
2022/07/28 12:06:59;;;;;;;1.73;1.17;;;;;;;;;;5053260;28;20229;-58
2022/07/28 12:09:30;;;;;;;3.07;1.23;;;;;;;;;;5053142;28;20195;-58
2022/07/28 12:11:56;;;;;;;3.70;1.10;;;;;;;;;;5053144;28;20231;-58
2022/07/28 12:14:22;;;;;;;3.13;1.07;;;;;;;;;;5053014;28;20413;-58
2022/07/28 12:16:49;;;;;;;2.45;1.30;;;;;;;;;;5051529;28;20401;-57
2022/07/28 12:19:16;;;;;;;3.08;1.13;;;;;;;;;;5051378;28;20409;-59
2022/07/28 12:21:44;;;;;;;3.08;1.30;;;;;;;;;;5051872;28;20421;-59
2022/07/28 12:24:11;;;;;;;2.15;1.27;;;;;;;;;;5051485;28;20840;-57
2022/07/28 12:26:38;;;;;;;2.20;1.10;;;;;;;;;;5052614;28;21007;-58
2022/07/28 12:29:04;;;;;;;2.67;1.27;;;;;;;;;;5052758;28;20253;-58
2022/07/28 12:31:34;;;;;;;3.10;1.30;;;;;;;;;;5052971;28;20195;-58
2022/07/28 12:34:01;;;;;;;3.77;1.57;;;;;;;;;;5052842;28;20275;-58
2022/07/28 12:36:27;;;;;;;2.70;1.20;;;;;;;;;;5052763;28;20278;-58
2022/07/28 12:38:55;;;;;;;2.70;1.40;;;;;;;;;;5052478;28;20208;-58
2022/07/28 12:41:21;;;;;;;4.13;1.23;;;;;;;;;;5052423;28;20544;-58
2022/07/28 12:43:51;;;;;;;1.70;1.17;;;;;;;;;;5052330;28;20235;-58
2022/07/28 12:46:21;;;;;;;5.17;1.30;;;;;;;;;;5052328;28;20754;-58
2022/07/28 12:48:48;;;;;;;4.37;1.30;;;;;;;;;;5052350;28;20210;-58
2022/07/28 12:51:29;;;;;;;5.03;1.30;;;;;;;;;;5052394;28;20665;-59
2022/07/28 12:53:56;;;;;;;3.47;1.40;;;;;;;;;;5052154;28;20293;-59
2022/07/28 12:56:22;;;;;;;3.57;1.20;;;;;;;;;;5052192;28;20258;-58
2022/07/28 12:58:53;;;;;;;4.53;1.30;;;;;;;;;;5051605;28;20199;-58
2022/07/28 13:01:20;;;;;;;3.97;1.50;;;;;;;;;;5052013;28;20233;-58
2022/07/28 13:03:46;;;;;;;1.63;1.17;;;;;;;;;;5052521;28;20212;-58
2022/07/28 13:06:14;;;;;;;3.67;1.40;;;;;;;;;;5052023;28;20236;-58
2022/07/28 13:08:41;;;;;;;1.83;1.23;;;;;;;;;;5052050;28;20635;-58
2022/07/28 13:11:09;;;;;;;2.30;1.10;;;;;;;;;;5051851;28;20786;-58
2022/07/28 13:13:45;;;;;;;3.10;1.30;;;;;;;;;;5051867;28;20294;-58
2022/07/28 13:16:11;;;;;;;2.97;1.27;;;;;;;;;;5051763;28;20194;-58
2022/07/28 13:18:38;;;;;;;3.93;1.40;;;;;;;;;;5051846;28;20213;-58
2022/07/28 13:21:04;;;;;;;2.97;1.10;;;;;;;;;;5051327;28;20199;-58
2022/07/28 13:23:30;;;;;;;2.80;1.30;;;;;;;;;;5051934;28;20228;-58
2022/07/28 13:25:56;;;;;;;3.00;1.10;;;;;;;;;;5051523;28;20228;-58
2022/07/28 13:28:26;;;;;;;4.47;1.43;;;;;;;;;;5051555;28;20686;-58
2022/07/28 13:30:52;;;;;;;2.47;0.90;;;;;;;;;;5051629;28;20207;-58
2022/07/28 13:33:18;;;;;;;4.20;1.73;;;;;;;;;;5051530;28;20566;-58
2022/07/28 13:35:46;;;;;;;2.23;1.20;;;;;;;;;;5051703;28;20188;-58
2022/07/28 13:38:12;;;;;;;3.03;1.20;;;;;;;;;;5051482;28;20250;-58
2022/07/28 13:40:38;;;;;;;2.00;1.27;;;;;;;;;;5051382;28;20610;-58
2022/07/28 13:43:06;;;;;;;2.20;1.07;;;;;;;;;;5051277;28;20239;-58
2022/07/28 13:45:34;;;;;;;3.30;1.00;;;;;;;;;;5051423;28;20761;-59
2022/07/28 13:48:00;;;;;;;3.73;1.23;;;;;;;;;;5051508;28;20204;-59
2022/07/28 13:50:26;;;;;;;3.15;1.38;;;;;;;;;;5050215;28;20763;-59
2022/07/28 13:52:52;;;;;;;3.80;1.40;;;;;;;;;;5050071;28;20960;-59
2022/07/28 13:55:18;;;;;;;1.47;1.20;;;;;;;;;;5051167;28;20230;-59
2022/07/28 13:57:44;;;;;;;3.43;1.23;;;;;;;;;;5051423;28;20202;-59
2022/07/28 14:00:11;;;;;;;3.43;1.20;;;;;;;;;;5051170;28;20199;-59
2022/07/28 14:02:38;;;;;;;2.10;1.30;;;;;;;;;;5051081;28;20569;-59
2022/07/28 14:05:04;;;;;;;4.07;1.27;;;;;;;;;;5050828;28;20345;-59
2022/07/28 14:07:30;;;;;;;3.53;1.50;;;;;;;;;;5051263;28;20257;-59
2022/07/28 14:09:57;;;;;;;4.17;1.50;;;;;;;;;;5051121;28;20211;-58
2022/07/28 14:12:23;;;;;;;4.68;1.20;;;;;;;;;;5054071;28;20396;-58
2022/07/28 14:14:49;;;;;;;3.17;1.40;;;;;;;;;;5055348;28;20211;-58
2022/07/28 14:17:15;;;;;;;1.90;1.30;;;;;;;;;;5055281;28;20207;-58
2022/07/28 14:19:42;;;;;;;4.15;1.27;;;;;;;;;;5053902;28;20962;-58
2022/07/28 14:22:08;;;;;;;1.53;1.20;;;;;;;;;;5055085;28;20203;-58
2022/07/28 14:24:34;;;;;;;4.03;1.07;;;;;;;;;;5055002;28;20221;-59
2022/07/28 14:27:00;;;;;;;3.63;1.37;;;;;;;;;;5054952;28;20234;-58
2022/07/28 14:29:26;;;;;;;2.67;1.30;;;;;;;;;;5054940;28;20639;-59
2022/07/28 14:31:54;;;;;;;3.13;1.10;;;;;;;;;;5054956;28;20202;-58
2022/07/28 14:34:20;;;;;;;4.67;1.00;;;;;;;;;;5054765;28;20226;-59
2022/07/28 14:36:47;;;;;;;2.73;1.60;;;;;;;;;;5054987;28;20664;-59
2022/07/28 14:39:13;;;;;;;2.20;1.47;;;;;;;;;;5054978;28;20208;-59
2022/07/28 14:41:41;;;;;;;2.23;1.20;;;;;;;;;;5054841;28;20206;-59
2022/07/28 14:44:07;;;;;;;3.07;1.40;;;;;;;;;;5054256;28;20353;-59
2022/07/28 14:46:33;;;;;;;2.57;0.90;;;;;;;;;;5054569;28;20359;-59
2022/07/28 14:48:59;;;;;;;2.40;1.03;;;;;;;;;;5054594;28;20200;-58